Terminal Aerodrome Forecast
Issued by NWS

Home | Current Version | Previous Version | Text Only | Print | Product List | Glossary On
Versions: 1 2 3 4 5 6 7 8 9 10 11 12 13 14 15 16 17
842
FTUS43 KJKL 180539
TAFSME
TAF
KSME 180539Z 1806/1906 28007KT P6SM BKN020
     FM180900 29005KT P6SM VCSH BKN015
     FM181600 27004KT P6SM BKN025
     FM181900 27004KT P6SM BKN040=

USA.gov is the U.S. government's official web portal to all federal, state and local government web resources and services.